sensor_id;sensor_type;location;lat;lon;timestamp;P1;durP1;ratioP1;P2;durP2;ratioP2
27543;SDS011;17996;51.056;3.656;2023-02-15T00:01:50;127.78;;;68.13;;
27543;SDS011;17996;51.056;3.656;2023-02-15T00:04:18;125.50;;;67.40;;
27543;SDS011;17996;51.056;3.656;2023-02-15T00:06:46;125.43;;;67.18;;
27543;SDS011;17996;51.056;3.656;2023-02-15T00:09:12;118.00;;;63.83;;
27543;SDS011;17996;51.056;3.656;2023-02-15T00:11:38;110.50;;;62.97;;
27543;SDS011;17996;51.056;3.656;2023-02-15T00:14:05;126.97;;;66.72;;
27543;SDS011;17996;51.056;3.656;2023-02-15T00:16:31;126.68;;;65.82;;
27543;SDS011;17996;51.056;3.656;2023-02-15T00:18:57;122.97;;;64.18;;
27543;SDS011;17996;51.056;3.656;2023-02-15T00:23:52;115.32;;;60.00;;
27543;SDS011;17996;51.056;3.656;2023-02-15T00:26:18;110.72;;;58.97;;
27543;SDS011;17996;51.056;3.656;2023-02-15T00:28:44;108.38;;;61.80;;
27543;SDS011;17996;51.056;3.656;2023-02-15T00:31:10;126.65;;;62.88;;
27543;SDS011;17996;51.056;3.656;2023-02-15T00:33:37;121.82;;;63.40;;
27543;SDS011;17996;51.056;3.656;2023-02-15T00:36:05;114.78;;;58.85;;
27543;SDS011;17996;51.056;3.656;2023-02-15T00:38:32;115.10;;;59.47;;
27543;SDS011;17996;51.056;3.656;2023-02-15T00:40:58;108.28;;;59.90;;
27543;SDS011;17996;51.056;3.656;2023-02-15T00:43:26;111.70;;;62.17;;
27543;SDS011;17996;51.056;3.656;2023-02-15T00:45:53;104.53;;;57.72;;
27543;SDS011;17996;51.056;3.656;2023-02-15T00:48:19;110.15;;;58.22;;
27543;SDS011;17996;51.056;3.656;2023-02-15T00:50:46;105.95;;;58.03;;
27543;SDS011;17996;51.056;3.656;2023-02-15T00:53:16;99.38;;;56.10;;
27543;SDS011;17996;51.056;3.656;2023-02-15T00:55:42;100.47;;;57.97;;
27543;SDS011;17996;51.056;3.656;2023-02-15T00:58:08;105.80;;;58.30;;
27543;SDS011;17996;51.056;3.656;2023-02-15T01:00:35;110.55;;;60.75;;
27543;SDS011;17996;51.056;3.656;2023-02-15T01:03:01;105.10;;;55.65;;
27543;SDS011;17996;51.056;3.656;2023-02-15T01:05:28;107.35;;;56.28;;
27543;SDS011;17996;51.056;3.656;2023-02-15T01:07:55;101.80;;;58.47;;
27543;SDS011;17996;51.056;3.656;2023-02-15T01:10:21;111.53;;;60.10;;
27543;SDS011;17996;51.056;3.656;2023-02-15T01:12:46;112.90;;;59.53;;
27543;SDS011;17996;51.056;3.656;2023-02-15T01:15:12;100.85;;;56.67;;
27543;SDS011;17996;51.056;3.656;2023-02-15T01:17:38;103.03;;;55.17;;
27543;SDS011;17996;51.056;3.656;2023-02-15T01:20:04;97.80;;;54.75;;
27543;SDS011;17996;51.056;3.656;2023-02-15T01:22:31;100.38;;;53.92;;
27543;SDS011;17996;51.056;3.656;2023-02-15T01:24:57;109.95;;;57.00;;
27543;SDS011;17996;51.056;3.656;2023-02-15T01:27:22;104.97;;;55.08;;
27543;SDS011;17996;51.056;3.656;2023-02-15T01:29:48;101.15;;;53.13;;
27543;SDS011;17996;51.056;3.656;2023-02-15T01:32:14;118.50;;;58.15;;
27543;SDS011;17996;51.056;3.656;2023-02-15T01:34:39;111.88;;;58.42;;
27543;SDS011;17996;51.056;3.656;2023-02-15T01:37:05;97.82;;;55.35;;
27543;SDS011;17996;51.056;3.656;2023-02-15T01:39:31;98.07;;;54.78;;
27543;SDS011;17996;51.056;3.656;2023-02-15T01:41:56;108.40;;;54.97;;
27543;SDS011;17996;51.056;3.656;2023-02-15T01:47:21;110.97;;;58.00;;
27543;SDS011;17996;51.056;3.656;2023-02-15T01:52:50;106.38;;;53.78;;
27543;SDS011;17996;51.056;3.656;2023-02-15T01:55:21;101.65;;;54.80;;
27543;SDS011;17996;51.056;3.656;2023-02-15T01:57:50;107.60;;;56.47;;
27543;SDS011;17996;51.056;3.656;2023-02-15T02:00:16;105.72;;;54.75;;
27543;SDS011;17996;51.056;3.656;2023-02-15T02:02:43;102.28;;;55.47;;
27543;SDS011;17996;51.056;3.656;2023-02-15T02:05:12;100.80;;;55.15;;
27543;SDS011;17996;51.056;3.656;2023-02-15T02:07:39;110.10;;;57.42;;
27543;SDS011;17996;51.056;3.656;2023-02-15T02:10:10;94.88;;;56.00;;
27543;SDS011;17996;51.056;3.656;2023-02-15T02:12:38;95.35;;;52.38;;
27543;SDS011;17996;51.056;3.656;2023-02-15T02:15:07;86.68;;;50.30;;
27543;SDS011;17996;51.056;3.656;2023-02-15T02:20:26;96.72;;;51.47;;
27543;SDS011;17996;51.056;3.656;2023-02-15T02:42:25;107.00;;;57.42;;
27543;SDS011;17996;51.056;3.656;2023-02-15T02:47:48;107.35;;;56.67;;
27543;SDS011;17996;51.056;3.656;2023-02-15T02:50:28;109.13;;;53.15;;
27543;SDS011;17996;51.056;3.656;2023-02-15T02:52:55;103.45;;;55.30;;
27543;SDS011;17996;51.056;3.656;2023-02-15T02:55:31;110.80;;;58.38;;
27543;SDS011;17996;51.056;3.656;2023-02-15T02:58:09;97.28;;;52.95;;
27543;SDS011;17996;51.056;3.656;2023-02-15T03:03:32;93.35;;;51.95;;
27543;SDS011;17996;51.056;3.656;2023-02-15T03:06:04;97.50;;;55.90;;
27543;SDS011;17996;51.056;3.656;2023-02-15T03:09:03;102.50;;;53.00;;
27543;SDS011;17996;51.056;3.656;2023-02-15T03:11:40;102.88;;;56.08;;
27543;SDS011;17996;51.056;3.656;2023-02-15T03:14:07;77.95;;;41.20;;
27543;SDS011;17996;51.056;3.656;2023-02-15T03:16:33;93.82;;;50.85;;
27543;SDS011;17996;51.056;3.656;2023-02-15T03:19:01;94.85;;;52.05;;
27543;SDS011;17996;51.056;3.656;2023-02-15T03:24:15;92.20;;;51.05;;
27543;SDS011;17996;51.056;3.656;2023-02-15T03:26:47;92.45;;;51.72;;
27543;SDS011;17996;51.056;3.656;2023-02-15T03:29:15;100.65;;;52.35;;
27543;SDS011;17996;51.056;3.656;2023-02-15T03:31:43;92.30;;;49.38;;
27543;SDS011;17996;51.056;3.656;2023-02-15T03:34:12;108.38;;;52.75;;
27543;SDS011;17996;51.056;3.656;2023-02-15T03:39:32;94.32;;;51.35;;
27543;SDS011;17996;51.056;3.656;2023-02-15T03:42:22;90.32;;;51.80;;
27543;SDS011;17996;51.056;3.656;2023-02-15T03:45:05;97.45;;;52.20;;
27543;SDS011;17996;51.056;3.656;2023-02-15T03:47:36;105.53;;;53.55;;
27543;SDS011;17996;51.056;3.656;2023-02-15T03:50:08;109.43;;;53.67;;
27543;SDS011;17996;51.056;3.656;2023-02-15T03:52:57;102.40;;;54.28;;
27543;SDS011;17996;51.056;3.656;2023-02-15T03:55:26;95.88;;;51.30;;
27543;SDS011;17996;51.056;3.656;2023-02-15T03:57:52;97.45;;;52.80;;
27543;SDS011;17996;51.056;3.656;2023-02-15T04:00:37;88.57;;;49.28;;
27543;SDS011;17996;51.056;3.656;2023-02-15T04:03:36;96.25;;;51.47;;
27543;SDS011;17996;51.056;3.656;2023-02-15T04:06:05;95.65;;;50.05;;
27543;SDS011;17996;51.056;3.656;2023-02-15T04:08:31;95.00;;;51.67;;
27543;SDS011;17996;51.056;3.656;2023-02-15T04:11:15;93.05;;;51.97;;
27543;SDS011;17996;51.056;3.656;2023-02-15T04:13:41;95.22;;;51.42;;
27543;SDS011;17996;51.056;3.656;2023-02-15T04:16:07;98.43;;;51.17;;
27543;SDS011;17996;51.056;3.656;2023-02-15T04:18:34;94.28;;;52.63;;
27543;SDS011;17996;51.056;3.656;2023-02-15T04:21:24;95.63;;;55.22;;
27543;SDS011;17996;51.056;3.656;2023-02-15T04:24:09;91.65;;;52.20;;
27543;SDS011;17996;51.056;3.656;2023-02-15T04:26:54;98.78;;;51.90;;
27543;SDS011;17996;51.056;3.656;2023-02-15T04:29:23;102.57;;;52.13;;
27543;SDS011;17996;51.056;3.656;2023-02-15T04:31:51;95.63;;;54.33;;
27543;SDS011;17996;51.056;3.656;2023-02-15T04:34:17;95.70;;;55.90;;
27543;SDS011;17996;51.056;3.656;2023-02-15T04:36:43;99.05;;;54.42;;
27543;SDS011;17996;51.056;3.656;2023-02-15T04:39:09;99.78;;;56.60;;
27543;SDS011;17996;51.056;3.656;2023-02-15T04:41:37;96.53;;;54.67;;
27543;SDS011;17996;51.056;3.656;2023-02-15T04:44:03;102.15;;;55.67;;
27543;SDS011;17996;51.056;3.656;2023-02-15T04:46:29;96.65;;;53.17;;
27543;SDS011;17996;51.056;3.656;2023-02-15T04:48:54;98.28;;;55.50;;
27543;SDS011;17996;51.056;3.656;2023-02-15T04:51:20;100.40;;;58.13;;
27543;SDS011;17996;51.056;3.656;2023-02-15T04:53:46;102.30;;;60.47;;
27543;SDS011;17996;51.056;3.656;2023-02-15T04:56:12;102.85;;;58.15;;
27543;SDS011;17996;51.056;3.656;2023-02-15T04:58:38;90.95;;;54.05;;
27543;SDS011;17996;51.056;3.656;2023-02-15T05:01:08;101.25;;;56.28;;
27543;SDS011;17996;51.056;3.656;2023-02-15T05:03:35;89.85;;;52.28;;
27543;SDS011;17996;51.056;3.656;2023-02-15T05:06:01;101.60;;;53.55;;
27543;SDS011;17996;51.056;3.656;2023-02-15T05:08:27;107.47;;;54.05;;
27543;SDS011;17996;51.056;3.656;2023-02-15T05:10:53;103.70;;;56.28;;
27543;SDS011;17996;51.056;3.656;2023-02-15T05:13:18;96.40;;;52.97;;
27543;SDS011;17996;51.056;3.656;2023-02-15T05:15:47;92.15;;;53.25;;
27543;SDS011;17996;51.056;3.656;2023-02-15T05:18:14;93.32;;;52.45;;
27543;SDS011;17996;51.056;3.656;2023-02-15T05:20:40;95.25;;;52.75;;
27543;SDS011;17996;51.056;3.656;2023-02-15T05:23:05;110.57;;;56.55;;
27543;SDS011;17996;51.056;3.656;2023-02-15T05:25:31;101.15;;;55.75;;
27543;SDS011;17996;51.056;3.656;2023-02-15T05:28:15;105.35;;;57.55;;
27543;SDS011;17996;51.056;3.656;2023-02-15T05:33:13;101.80;;;56.67;;
27543;SDS011;17996;51.056;3.656;2023-02-15T05:35:38;101.43;;;54.50;;
27543;SDS011;17996;51.056;3.656;2023-02-15T05:38:04;108.40;;;56.58;;
27543;SDS011;17996;51.056;3.656;2023-02-15T05:40:30;93.63;;;54.05;;
27543;SDS011;17996;51.056;3.656;2023-02-15T05:42:56;108.05;;;56.83;;
27543;SDS011;17996;51.056;3.656;2023-02-15T05:45:21;106.43;;;56.42;;
27543;SDS011;17996;51.056;3.656;2023-02-15T05:47:47;98.07;;;54.47;;
27543;SDS011;17996;51.056;3.656;2023-02-15T05:50:13;113.75;;;60.85;;
27543;SDS011;17996;51.056;3.656;2023-02-15T05:52:39;116.57;;;58.80;;
27543;SDS011;17996;51.056;3.656;2023-02-15T05:55:04;112.63;;;58.22;;
27543;SDS011;17996;51.056;3.656;2023-02-15T05:57:31;101.75;;;55.95;;
27543;SDS011;17996;51.056;3.656;2023-02-15T05:59:56;112.15;;;59.03;;
27543;SDS011;17996;51.056;3.656;2023-02-15T06:02:22;112.65;;;60.00;;
27543;SDS011;17996;51.056;3.656;2023-02-15T06:04:48;121.13;;;61.72;;
27543;SDS011;17996;51.056;3.656;2023-02-15T06:07:13;105.32;;;57.47;;
27543;SDS011;17996;51.056;3.656;2023-02-15T06:09:39;107.63;;;56.70;;
27543;SDS011;17996;51.056;3.656;2023-02-15T06:12:05;114.38;;;59.50;;
27543;SDS011;17996;51.056;3.656;2023-02-15T06:14:30;105.05;;;57.33;;
27543;SDS011;17996;51.056;3.656;2023-02-15T06:16:56;107.78;;;53.60;;
27543;SDS011;17996;51.056;3.656;2023-02-15T06:19:22;107.45;;;56.55;;
27543;SDS011;17996;51.056;3.656;2023-02-15T06:21:48;106.85;;;58.78;;
27543;SDS011;17996;51.056;3.656;2023-02-15T06:24:14;112.22;;;59.05;;
27543;SDS011;17996;51.056;3.656;2023-02-15T06:26:39;101.85;;;55.33;;
27543;SDS011;17996;51.056;3.656;2023-02-15T06:29:05;108.93;;;58.70;;
27543;SDS011;17996;51.056;3.656;2023-02-15T06:31:31;107.80;;;56.95;;
27543;SDS011;17996;51.056;3.656;2023-02-15T06:33:57;107.40;;;56.08;;
27543;SDS011;17996;51.056;3.656;2023-02-15T06:36:26;116.72;;;58.90;;
27543;SDS011;17996;51.056;3.656;2023-02-15T06:38:53;104.80;;;58.95;;
27543;SDS011;17996;51.056;3.656;2023-02-15T06:41:19;102.72;;;56.42;;
27543;SDS011;17996;51.056;3.656;2023-02-15T06:43:45;110.30;;;58.72;;
27543;SDS011;17996;51.056;3.656;2023-02-15T06:46:11;108.40;;;56.45;;
27543;SDS011;17996;51.056;3.656;2023-02-15T06:48:37;114.07;;;58.35;;
27543;SDS011;17996;51.056;3.656;2023-02-15T06:51:03;106.90;;;57.83;;
27543;SDS011;17996;51.056;3.656;2023-02-15T06:53:28;111.07;;;58.97;;
27543;SDS011;17996;51.056;3.656;2023-02-15T06:56:04;122.28;;;60.72;;
27543;SDS011;17996;51.056;3.656;2023-02-15T06:58:40;100.38;;;56.17;;
27543;SDS011;17996;51.056;3.656;2023-02-15T07:01:07;111.93;;;59.78;;
27543;SDS011;17996;51.056;3.656;2023-02-15T07:03:34;104.47;;;56.20;;
27543;SDS011;17996;51.056;3.656;2023-02-15T07:06:00;107.20;;;54.45;;
27543;SDS011;17996;51.056;3.656;2023-02-15T07:08:27;108.78;;;57.15;;
27543;SDS011;17996;51.056;3.656;2023-02-15T07:10:54;110.85;;;55.97;;
27543;SDS011;17996;51.056;3.656;2023-02-15T07:13:40;119.90;;;59.88;;
27543;SDS011;17996;51.056;3.656;2023-02-15T07:16:07;108.10;;;58.80;;
27543;SDS011;17996;51.056;3.656;2023-02-15T07:18:34;108.97;;;58.00;;
27543;SDS011;17996;51.056;3.656;2023-02-15T07:21:00;113.78;;;57.97;;
27543;SDS011;17996;51.056;3.656;2023-02-15T07:23:26;108.78;;;56.75;;
27543;SDS011;17996;51.056;3.656;2023-02-15T07:25:58;106.20;;;57.88;;
27543;SDS011;17996;51.056;3.656;2023-02-15T07:28:25;115.50;;;57.50;;
27543;SDS011;17996;51.056;3.656;2023-02-15T07:30:50;120.15;;;59.25;;
27543;SDS011;17996;51.056;3.656;2023-02-15T07:33:16;114.50;;;61.67;;
27543;SDS011;17996;51.056;3.656;2023-02-15T07:35:49;120.55;;;64.60;;
27543;SDS011;17996;51.056;3.656;2023-02-15T07:38:16;111.30;;;58.47;;
27543;SDS011;17996;51.056;3.656;2023-02-15T07:40:43;105.30;;;57.22;;
27543;SDS011;17996;51.056;3.656;2023-02-15T07:43:09;105.68;;;57.42;;
27543;SDS011;17996;51.056;3.656;2023-02-15T07:45:35;99.20;;;52.90;;
27543;SDS011;17996;51.056;3.656;2023-02-15T07:48:01;103.90;;;53.95;;
27543;SDS011;17996;51.056;3.656;2023-02-15T07:50:28;106.43;;;57.35;;
27543;SDS011;17996;51.056;3.656;2023-02-15T07:52:54;113.05;;;58.60;;
27543;SDS011;17996;51.056;3.656;2023-02-15T07:55:20;116.82;;;61.42;;
27543;SDS011;17996;51.056;3.656;2023-02-15T07:57:46;117.30;;;57.58;;
27543;SDS011;17996;51.056;3.656;2023-02-15T08:00:14;112.63;;;60.45;;
27543;SDS011;17996;51.056;3.656;2023-02-15T08:02:42;118.60;;;62.20;;
27543;SDS011;17996;51.056;3.656;2023-02-15T08:05:12;115.63;;;62.10;;
27543;SDS011;17996;51.056;3.656;2023-02-15T08:07:38;115.32;;;62.30;;
27543;SDS011;17996;51.056;3.656;2023-02-15T08:10:04;119.05;;;60.15;;
27543;SDS011;17996;51.056;3.656;2023-02-15T08:12:30;118.00;;;63.38;;
27543;SDS011;17996;51.056;3.656;2023-02-15T08:14:55;118.45;;;62.80;;
27543;SDS011;17996;51.056;3.656;2023-02-15T08:17:21;113.05;;;61.60;;
27543;SDS011;17996;51.056;3.656;2023-02-15T08:19:47;113.10;;;61.25;;
27543;SDS011;17996;51.056;3.656;2023-02-15T08:22:13;126.03;;;61.30;;
27543;SDS011;17996;51.056;3.656;2023-02-15T08:24:39;121.07;;;63.22;;
27543;SDS011;17996;51.056;3.656;2023-02-15T08:27:06;116.13;;;62.08;;
27543;SDS011;17996;51.056;3.656;2023-02-15T08:29:34;121.45;;;62.17;;
27543;SDS011;17996;51.056;3.656;2023-02-15T08:32:03;117.40;;;62.10;;
27543;SDS011;17996;51.056;3.656;2023-02-15T08:34:36;114.88;;;59.58;;
27543;SDS011;17996;51.056;3.656;2023-02-15T08:37:04;119.75;;;62.35;;
27543;SDS011;17996;51.056;3.656;2023-02-15T08:39:30;116.40;;;61.55;;
27543;SDS011;17996;51.056;3.656;2023-02-15T08:41:56;118.90;;;60.95;;
27543;SDS011;17996;51.056;3.656;2023-02-15T08:44:22;118.63;;;61.38;;
27543;SDS011;17996;51.056;3.656;2023-02-15T08:46:48;118.43;;;61.05;;
27543;SDS011;17996;51.056;3.656;2023-02-15T08:49:20;106.72;;;58.15;;
27543;SDS011;17996;51.056;3.656;2023-02-15T08:51:47;119.65;;;60.90;;
27543;SDS011;17996;51.056;3.656;2023-02-15T08:54:14;110.47;;;57.60;;
27543;SDS011;17996;51.056;3.656;2023-02-15T08:56:43;107.18;;;57.95;;
27543;SDS011;17996;51.056;3.656;2023-02-15T08:59:19;108.28;;;57.65;;
27543;SDS011;17996;51.056;3.656;2023-02-15T09:01:47;110.38;;;55.45;;
27543;SDS011;17996;51.056;3.656;2023-02-15T09:04:14;108.30;;;56.28;;
27543;SDS011;17996;51.056;3.656;2023-02-15T09:06:42;102.47;;;56.97;;
27543;SDS011;17996;51.056;3.656;2023-02-15T09:09:09;104.93;;;56.83;;
27543;SDS011;17996;51.056;3.656;2023-02-15T09:11:37;104.82;;;54.10;;
27543;SDS011;17996;51.056;3.656;2023-02-15T09:14:06;98.80;;;54.47;;
27543;SDS011;17996;51.056;3.656;2023-02-15T09:16:35;104.65;;;53.75;;
27543;SDS011;17996;51.056;3.656;2023-02-15T09:19:02;105.97;;;54.65;;
27543;SDS011;17996;51.056;3.656;2023-02-15T09:21:35;106.65;;;53.97;;
27543;SDS011;17996;51.056;3.656;2023-02-15T09:24:03;114.10;;;54.70;;
27543;SDS011;17996;51.056;3.656;2023-02-15T09:26:31;98.90;;;53.00;;
27543;SDS011;17996;51.056;3.656;2023-02-15T09:28:59;108.38;;;53.30;;
27543;SDS011;17996;51.056;3.656;2023-02-15T09:31:27;101.45;;;52.97;;
27543;SDS011;17996;51.056;3.656;2023-02-15T09:33:54;102.80;;;51.83;;
27543;SDS011;17996;51.056;3.656;2023-02-15T09:38:52;96.05;;;52.28;;
27543;SDS011;17996;51.056;3.656;2023-02-15T09:44:22;99.55;;;52.72;;
27543;SDS011;17996;51.056;3.656;2023-02-15T10:09:15;94.28;;;51.22;;
27543;SDS011;17996;51.056;3.656;2023-02-15T10:15:12;95.57;;;47.58;;
27543;SDS011;17996;51.056;3.656;2023-02-15T10:17:50;92.78;;;50.25;;
27543;SDS011;17996;51.056;3.656;2023-02-15T10:23:53;95.80;;;48.60;;
27543;SDS011;17996;51.056;3.656;2023-02-15T10:29:09;90.63;;;46.75;;
27543;SDS011;17996;51.056;3.656;2023-02-15T10:31:48;91.93;;;48.27;;
27543;SDS011;17996;51.056;3.656;2023-02-15T10:39:34;94.85;;;48.42;;
27543;SDS011;17996;51.056;3.656;2023-02-15T10:45:39;88.25;;;46.25;;
27543;SDS011;17996;51.056;3.656;2023-02-15T10:54:45;94.65;;;46.35;;
27543;SDS011;17996;51.056;3.656;2023-02-15T11:00:30;85.03;;;46.47;;
27543;SDS011;17996;51.056;3.656;2023-02-15T11:06:07;84.10;;;46.22;;
27543;SDS011;17996;51.056;3.656;2023-02-15T11:08:39;84.47;;;44.70;;
27543;SDS011;17996;51.056;3.656;2023-02-15T11:11:27;97.65;;;48.85;;
27543;SDS011;17996;51.056;3.656;2023-02-15T11:14:00;82.30;;;47.10;;
27543;SDS011;17996;51.056;3.656;2023-02-15T11:16:32;90.50;;;48.83;;
27543;SDS011;17996;51.056;3.656;2023-02-15T11:19:06;85.03;;;44.75;;
27543;SDS011;17996;51.056;3.656;2023-02-15T11:21:49;76.90;;;42.53;;
27543;SDS011;17996;51.056;3.656;2023-02-15T11:24:19;81.32;;;44.45;;
27543;SDS011;17996;51.056;3.656;2023-02-15T11:26:50;79.47;;;45.15;;
27543;SDS011;17996;51.056;3.656;2023-02-15T11:32:25;84.55;;;46.15;;
27543;SDS011;17996;51.056;3.656;2023-02-15T11:34:55;88.20;;;47.50;;
27543;SDS011;17996;51.056;3.656;2023-02-15T11:37:48;81.82;;;45.90;;
27543;SDS011;17996;51.056;3.656;2023-02-15T11:42:54;85.53;;;45.90;;
27543;SDS011;17996;51.056;3.656;2023-02-15T11:45:22;81.90;;;46.00;;
27543;SDS011;17996;51.056;3.656;2023-02-15T11:47:56;80.43;;;46.25;;
27543;SDS011;17996;51.056;3.656;2023-02-15T11:50:23;81.28;;;45.63;;
27543;SDS011;17996;51.056;3.656;2023-02-15T11:52:51;81.07;;;46.40;;
27543;SDS011;17996;51.056;3.656;2023-02-15T11:55:22;81.70;;;44.88;;
27543;SDS011;17996;51.056;3.656;2023-02-15T11:57:53;80.97;;;45.45;;
27543;SDS011;17996;51.056;3.656;2023-02-15T12:03:11;78.03;;;44.58;;
27543;SDS011;17996;51.056;3.656;2023-02-15T12:05:44;82.38;;;45.50;;
27543;SDS011;17996;51.056;3.656;2023-02-15T12:08:13;90.17;;;47.23;;
27543;SDS011;17996;51.056;3.656;2023-02-15T12:11:17;80.88;;;43.10;;
27543;SDS011;17996;51.056;3.656;2023-02-15T12:16:25;74.80;;;44.72;;
27543;SDS011;17996;51.056;3.656;2023-02-15T12:18:58;71.28;;;42.42;;
27543;SDS011;17996;51.056;3.656;2023-02-15T12:21:30;75.53;;;43.80;;
27543;SDS011;17996;51.056;3.656;2023-02-15T12:24:01;64.85;;;40.70;;
27543;SDS011;17996;51.056;3.656;2023-02-15T12:26:34;81.18;;;42.72;;
27543;SDS011;17996;51.056;3.656;2023-02-15T12:29:06;76.50;;;42.40;;
27543;SDS011;17996;51.056;3.656;2023-02-15T12:31:40;73.90;;;43.10;;
27543;SDS011;17996;51.056;3.656;2023-02-15T12:34:10;77.95;;;42.38;;
27543;SDS011;17996;51.056;3.656;2023-02-15T12:36:43;74.18;;;44.88;;
27543;SDS011;17996;51.056;3.656;2023-02-15T12:44:28;82.90;;;44.72;;
27543;SDS011;17996;51.056;3.656;2023-02-15T12:47:19;76.93;;;43.75;;
27543;SDS011;17996;51.056;3.656;2023-02-15T12:52:42;77.05;;;47.53;;
27543;SDS011;17996;51.056;3.656;2023-02-15T12:55:10;78.00;;;44.20;;
27543;SDS011;17996;51.056;3.656;2023-02-15T13:00:32;70.47;;;43.55;;
27543;SDS011;17996;51.056;3.656;2023-02-15T13:02:58;75.13;;;43.00;;
27543;SDS011;17996;51.056;3.656;2023-02-15T13:05:38;81.78;;;43.25;;
27543;SDS011;17996;51.056;3.656;2023-02-15T13:08:17;75.32;;;43.10;;
27543;SDS011;17996;51.056;3.656;2023-02-15T13:13:32;69.68;;;39.28;;
27543;SDS011;17996;51.056;3.656;2023-02-15T13:16:07;69.22;;;40.38;;
27543;SDS011;17996;51.056;3.656;2023-02-15T13:18:38;77.82;;;43.92;;
27543;SDS011;17996;51.056;3.656;2023-02-15T13:23:49;65.63;;;40.65;;
27543;SDS011;17996;51.056;3.656;2023-02-15T13:26:18;71.53;;;40.85;;
27543;SDS011;17996;51.056;3.656;2023-02-15T13:28:47;77.18;;;41.85;;
27543;SDS011;17996;51.056;3.656;2023-02-15T13:31:19;84.47;;;44.17;;
27543;SDS011;17996;51.056;3.656;2023-02-15T13:33:48;77.05;;;42.35;;
27543;SDS011;17996;51.056;3.656;2023-02-15T13:42:00;72.03;;;39.80;;
27543;SDS011;17996;51.056;3.656;2023-02-15T13:47:09;52.85;;;31.08;;
27543;SDS011;17996;51.056;3.656;2023-02-15T13:49:52;70.63;;;41.40;;
27543;SDS011;17996;51.056;3.656;2023-02-15T13:52:25;75.22;;;41.80;;
27543;SDS011;17996;51.056;3.656;2023-02-15T14:00:17;72.80;;;43.65;;
27543;SDS011;17996;51.056;3.656;2023-02-15T14:03:18;75.97;;;44.40;;
27543;SDS011;17996;51.056;3.656;2023-02-15T14:16:17;75.30;;;44.95;;
27543;SDS011;17996;51.056;3.656;2023-02-15T14:19:12;71.32;;;43.13;;
27543;SDS011;17996;51.056;3.656;2023-02-15T14:21:59;75.70;;;43.60;;
27543;SDS011;17996;51.056;3.656;2023-02-15T14:24:37;72.88;;;41.25;;
27543;SDS011;17996;51.056;3.656;2023-02-15T14:27:27;70.95;;;43.08;;
27543;SDS011;17996;51.056;3.656;2023-02-15T14:32:50;76.32;;;43.47;;
27543;SDS011;17996;51.056;3.656;2023-02-15T14:35:23;67.60;;;41.47;;
27543;SDS011;17996;51.056;3.656;2023-02-15T14:40:30;69.25;;;43.20;;
27543;SDS011;17996;51.056;3.656;2023-02-15T14:56:43;78.33;;;43.67;;
27543;SDS011;17996;51.056;3.656;2023-02-15T14:59:13;75.45;;;42.08;;
27543;SDS011;17996;51.056;3.656;2023-02-15T15:01:41;69.03;;;43.17;;
27543;SDS011;17996;51.056;3.656;2023-02-15T15:04:22;70.05;;;42.40;;
27543;SDS011;17996;51.056;3.656;2023-02-15T15:09:39;68.40;;;43.28;;
27543;SDS011;17996;51.056;3.656;2023-02-15T15:12:14;74.78;;;43.45;;
27543;SDS011;17996;51.056;3.656;2023-02-15T15:14:41;75.50;;;45.50;;
27543;SDS011;17996;51.056;3.656;2023-02-15T15:17:13;75.65;;;43.72;;
27543;SDS011;17996;51.056;3.656;2023-02-15T15:20:04;73.88;;;42.35;;
27543;SDS011;17996;51.056;3.656;2023-02-15T15:22:38;79.13;;;43.25;;
27543;SDS011;17996;51.056;3.656;2023-02-15T15:28:06;68.22;;;42.38;;
27543;SDS011;17996;51.056;3.656;2023-02-15T15:40:55;75.43;;;43.85;;
27543;SDS011;17996;51.056;3.656;2023-02-15T15:49:20;67.97;;;42.58;;
27543;SDS011;17996;51.056;3.656;2023-02-15T15:51:48;73.25;;;42.90;;
27543;SDS011;17996;51.056;3.656;2023-02-15T15:54:15;70.97;;;43.63;;
27543;SDS011;17996;51.056;3.656;2023-02-15T15:56:56;67.05;;;42.85;;
27543;SDS011;17996;51.056;3.656;2023-02-15T15:59:31;70.93;;;43.78;;
27543;SDS011;17996;51.056;3.656;2023-02-15T16:02:09;79.68;;;42.75;;
27543;SDS011;17996;51.056;3.656;2023-02-15T16:04:38;74.88;;;45.03;;
27543;SDS011;17996;51.056;3.656;2023-02-15T16:09:52;66.82;;;43.65;;
27543;SDS011;17996;51.056;3.656;2023-02-15T16:12:21;75.38;;;43.35;;
27543;SDS011;17996;51.056;3.656;2023-02-15T16:14:47;79.13;;;42.38;;
27543;SDS011;17996;51.056;3.656;2023-02-15T16:17:24;80.20;;;44.55;;
27543;SDS011;17996;51.056;3.656;2023-02-15T16:19:52;77.07;;;45.17;;
27543;SDS011;17996;51.056;3.656;2023-02-15T16:22:28;77.53;;;44.45;;
27543;SDS011;17996;51.056;3.656;2023-02-15T16:27:49;71.93;;;43.17;;
27543;SDS011;17996;51.056;3.656;2023-02-15T16:30:32;77.60;;;45.20;;
27543;SDS011;17996;51.056;3.656;2023-02-15T16:35:34;70.60;;;43.13;;
27543;SDS011;17996;51.056;3.656;2023-02-15T16:38:02;73.88;;;44.03;;
27543;SDS011;17996;51.056;3.656;2023-02-15T16:43:05;72.38;;;43.13;;
27543;SDS011;17996;51.056;3.656;2023-02-15T16:45:36;77.22;;;44.83;;
27543;SDS011;17996;51.056;3.656;2023-02-15T16:48:05;71.95;;;44.22;;
27543;SDS011;17996;51.056;3.656;2023-02-15T16:50:36;79.05;;;44.92;;
27543;SDS011;17996;51.056;3.656;2023-02-15T16:53:03;72.40;;;42.15;;
27543;SDS011;17996;51.056;3.656;2023-02-15T16:55:35;77.32;;;45.47;;
27543;SDS011;17996;51.056;3.656;2023-02-15T16:58:04;79.97;;;45.90;;
27543;SDS011;17996;51.056;3.656;2023-02-15T17:00:33;79.57;;;44.55;;
27543;SDS011;17996;51.056;3.656;2023-02-15T17:03:05;75.05;;;44.33;;
27543;SDS011;17996;51.056;3.656;2023-02-15T17:05:45;75.03;;;43.70;;
27543;SDS011;17996;51.056;3.656;2023-02-15T17:08:17;80.63;;;47.83;;
27543;SDS011;17996;51.056;3.656;2023-02-15T17:13:28;80.68;;;47.65;;
27543;SDS011;17996;51.056;3.656;2023-02-15T17:18:23;80.10;;;45.55;;
27543;SDS011;17996;51.056;3.656;2023-02-15T17:20:50;84.28;;;45.97;;
27543;SDS011;17996;51.056;3.656;2023-02-15T17:23:33;80.53;;;47.97;;
27543;SDS011;17996;51.056;3.656;2023-02-15T17:26:14;89.70;;;46.55;;
27543;SDS011;17996;51.056;3.656;2023-02-15T17:29:01;83.68;;;46.60;;
27543;SDS011;17996;51.056;3.656;2023-02-15T17:31:48;85.50;;;48.47;;
27543;SDS011;17996;51.056;3.656;2023-02-15T17:40:18;90.15;;;49.65;;
27543;SDS011;17996;51.056;3.656;2023-02-15T17:42:44;87.72;;;49.35;;
27543;SDS011;17996;51.056;3.656;2023-02-15T17:45:10;98.88;;;50.95;;
27543;SDS011;17996;51.056;3.656;2023-02-15T17:47:35;113.25;;;52.30;;
27543;SDS011;17996;51.056;3.656;2023-02-15T17:50:02;85.80;;;48.95;;
27543;SDS011;17996;51.056;3.656;2023-02-15T17:52:30;86.22;;;50.53;;
27543;SDS011;17996;51.056;3.656;2023-02-15T17:54:56;95.70;;;50.20;;
27543;SDS011;17996;51.056;3.656;2023-02-15T17:57:40;92.43;;;50.28;;
27543;SDS011;17996;51.056;3.656;2023-02-15T18:00:06;93.43;;;50.13;;
27543;SDS011;17996;51.056;3.656;2023-02-15T18:02:51;96.57;;;50.97;;
27543;SDS011;17996;51.056;3.656;2023-02-15T18:05:36;90.57;;;50.95;;
27543;SDS011;17996;51.056;3.656;2023-02-15T18:08:24;102.68;;;53.50;;
27543;SDS011;17996;51.056;3.656;2023-02-15T18:11:10;102.07;;;50.28;;
27543;SDS011;17996;51.056;3.656;2023-02-15T18:13:55;217.75;;;62.55;;